sensor_id;sensor_type;location;lat;lon;timestamp;P1;durP1;ratioP1;P2;durP2;ratioP2
4529;SDS011;2277;51.626;7.516;2023-07-20T00:00:53;3.63;;;3.33;;
4529;SDS011;2277;51.626;7.516;2023-07-20T00:03:19;5.67;;;5.00;;
4529;SDS011;2277;51.626;7.516;2023-07-20T00:05:48;10.43;;;3.80;;
4529;SDS011;2277;51.626;7.516;2023-07-20T00:08:14;3.50;;;3.20;;
4529;SDS011;2277;51.626;7.516;2023-07-20T00:10:40;3.80;;;3.30;;
4529;SDS011;2277;51.626;7.516;2023-07-20T00:13:06;4.87;;;2.73;;
4529;SDS011;2277;51.626;7.516;2023-07-20T00:15:32;4.90;;;3.17;;
4529;SDS011;2277;51.626;7.516;2023-07-20T00:17:58;3.33;;;2.67;;
4529;SDS011;2277;51.626;7.516;2023-07-20T00:20:24;3.20;;;2.90;;
4529;SDS011;2277;51.626;7.516;2023-07-20T00:22:52;2.73;;;2.10;;
4529;SDS011;2277;51.626;7.516;2023-07-20T00:25:20;3.33;;;2.80;;
4529;SDS011;2277;51.626;7.516;2023-07-20T00:27:45;4.30;;;3.53;;
4529;SDS011;2277;51.626;7.516;2023-07-20T00:30:11;7.03;;;4.33;;
4529;SDS011;2277;51.626;7.516;2023-07-20T00:32:37;4.60;;;3.97;;
4529;SDS011;2277;51.626;7.516;2023-07-20T00:35:03;6.93;;;4.40;;
4529;SDS011;2277;51.626;7.516;2023-07-20T00:37:29;5.93;;;4.23;;
4529;SDS011;2277;51.626;7.516;2023-07-20T00:39:54;5.10;;;4.57;;
4529;SDS011;2277;51.626;7.516;2023-07-20T00:42:20;5.70;;;4.03;;
4529;SDS011;2277;51.626;7.516;2023-07-20T00:44:45;4.17;;;3.73;;
4529;SDS011;2277;51.626;7.516;2023-07-20T00:47:11;4.10;;;3.70;;
4529;SDS011;2277;51.626;7.516;2023-07-20T00:49:37;6.87;;;5.00;;
4529;SDS011;2277;51.626;7.516;2023-07-20T00:52:03;5.20;;;4.33;;
4529;SDS011;2277;51.626;7.516;2023-07-20T00:54:32;3.90;;;3.50;;
4529;SDS011;2277;51.626;7.516;2023-07-20T00:56:58;4.50;;;3.90;;
4529;SDS011;2277;51.626;7.516;2023-07-20T00:59:26;5.00;;;4.43;;
4529;SDS011;2277;51.626;7.516;2023-07-20T01:01:52;7.70;;;4.93;;
4529;SDS011;2277;51.626;7.516;2023-07-20T01:04:18;4.13;;;3.73;;
4529;SDS011;2277;51.626;7.516;2023-07-20T01:06:53;4.80;;;4.30;;
4529;SDS011;2277;51.626;7.516;2023-07-20T01:10:01;6.30;;;4.07;;
4529;SDS011;2277;51.626;7.516;2023-07-20T01:15:06;5.37;;;4.10;;
4529;SDS011;2277;51.626;7.516;2023-07-20T01:17:33;4.37;;;3.33;;
4529;SDS011;2277;51.626;7.516;2023-07-20T01:19:59;10.73;;;4.13;;
4529;SDS011;2277;51.626;7.516;2023-07-20T01:33:38;6.33;;;5.83;;
4529;SDS011;2277;51.626;7.516;2023-07-20T01:36:05;3.77;;;3.37;;
4529;SDS011;2277;51.626;7.516;2023-07-20T01:38:32;6.43;;;3.10;;
4529;SDS011;2277;51.626;7.516;2023-07-20T01:40:58;5.80;;;3.33;;
4529;SDS011;2277;51.626;7.516;2023-07-20T01:43:24;3.30;;;2.83;;
4529;SDS011;2277;51.626;7.516;2023-07-20T01:45:49;3.57;;;3.27;;
4529;SDS011;2277;51.626;7.516;2023-07-20T01:48:15;4.47;;;2.93;;
4529;SDS011;2277;51.626;7.516;2023-07-20T01:50:40;5.90;;;4.10;;
4529;SDS011;2277;51.626;7.516;2023-07-20T01:53:06;3.03;;;2.73;;
4529;SDS011;2277;51.626;7.516;2023-07-20T01:55:32;4.20;;;3.00;;
4529;SDS011;2277;51.626;7.516;2023-07-20T01:57:57;3.97;;;3.33;;
4529;SDS011;2277;51.626;7.516;2023-07-20T02:00:25;4.67;;;3.17;;
4529;SDS011;2277;51.626;7.516;2023-07-20T02:02:51;5.07;;;3.50;;
4529;SDS011;2277;51.626;7.516;2023-07-20T02:05:16;5.43;;;3.80;;
4529;SDS011;2277;51.626;7.516;2023-07-20T02:07:42;3.50;;;3.13;;
4529;SDS011;2277;51.626;7.516;2023-07-20T02:10:08;5.50;;;3.30;;
4529;SDS011;2277;51.626;7.516;2023-07-20T02:12:34;7.40;;;3.90;;
4529;SDS011;2277;51.626;7.516;2023-07-20T02:15:01;4.50;;;3.33;;
4529;SDS011;2277;51.626;7.516;2023-07-20T02:17:29;3.50;;;3.20;;
4529;SDS011;2277;51.626;7.516;2023-07-20T02:19:55;3.73;;;3.20;;
4529;SDS011;2277;51.626;7.516;2023-07-20T02:22:22;7.20;;;3.70;;
4529;SDS011;2277;51.626;7.516;2023-07-20T02:24:48;6.30;;;3.63;;
4529;SDS011;2277;51.626;7.516;2023-07-20T02:27:15;4.57;;;3.20;;
4529;SDS011;2277;51.626;7.516;2023-07-20T02:29:41;4.80;;;3.23;;
4529;SDS011;2277;51.626;7.516;2023-07-20T02:32:07;5.10;;;3.97;;
4529;SDS011;2277;51.626;7.516;2023-07-20T02:34:34;6.37;;;4.07;;
4529;SDS011;2277;51.626;7.516;2023-07-20T02:37:00;6.47;;;4.40;;
4529;SDS011;2277;51.626;7.516;2023-07-20T02:39:29;6.37;;;5.47;;
4529;SDS011;2277;51.626;7.516;2023-07-20T02:41:55;6.43;;;5.10;;
4529;SDS011;2277;51.626;7.516;2023-07-20T02:44:20;6.50;;;4.70;;
4529;SDS011;2277;51.626;7.516;2023-07-20T02:46:46;8.30;;;4.77;;
4529;SDS011;2277;51.626;7.516;2023-07-20T02:49:12;5.70;;;4.50;;
4529;SDS011;2277;51.626;7.516;2023-07-20T02:51:37;6.33;;;4.37;;
4529;SDS011;2277;51.626;7.516;2023-07-20T02:54:03;7.80;;;5.87;;
4529;SDS011;2277;51.626;7.516;2023-07-20T02:56:28;6.10;;;5.13;;
4529;SDS011;2277;51.626;7.516;2023-07-20T02:58:54;9.60;;;6.47;;
4529;SDS011;2277;51.626;7.516;2023-07-20T03:01:20;5.40;;;3.97;;
4529;SDS011;2277;51.626;7.516;2023-07-20T03:03:46;7.40;;;4.43;;
4529;SDS011;2277;51.626;7.516;2023-07-20T03:06:14;7.33;;;6.63;;
4529;SDS011;2277;51.626;7.516;2023-07-20T03:08:40;7.40;;;4.97;;
4529;SDS011;2277;51.626;7.516;2023-07-20T03:11:12;11.93;;;5.17;;
4529;SDS011;2277;51.626;7.516;2023-07-20T03:13:39;8.00;;;4.60;;
4529;SDS011;2277;51.626;7.516;2023-07-20T03:16:04;6.83;;;4.90;;
4529;SDS011;2277;51.626;7.516;2023-07-20T03:18:30;6.07;;;4.50;;
4529;SDS011;2277;51.626;7.516;2023-07-20T03:20:55;6.00;;;4.87;;
4529;SDS011;2277;51.626;7.516;2023-07-20T03:23:21;5.17;;;4.67;;
4529;SDS011;2277;51.626;7.516;2023-07-20T03:25:47;7.17;;;4.00;;
4529;SDS011;2277;51.626;7.516;2023-07-20T03:28:12;5.20;;;4.20;;
4529;SDS011;2277;51.626;7.516;2023-07-20T03:30:38;5.77;;;5.17;;
4529;SDS011;2277;51.626;7.516;2023-07-20T03:33:04;4.30;;;3.90;;
4529;SDS011;2277;51.626;7.516;2023-07-20T03:35:29;5.90;;;4.07;;
4529;SDS011;2277;51.626;7.516;2023-07-20T03:37:56;5.27;;;4.77;;
4529;SDS011;2277;51.626;7.516;2023-07-20T03:40:22;6.60;;;4.67;;
4529;SDS011;2277;51.626;7.516;2023-07-20T03:42:48;5.57;;;5.00;;
4529;SDS011;2277;51.626;7.516;2023-07-20T03:45:13;9.90;;;5.00;;
4529;SDS011;2277;51.626;7.516;2023-07-20T03:47:39;9.60;;;5.40;;
4529;SDS011;2277;51.626;7.516;2023-07-20T03:50:04;6.97;;;4.53;;
4529;SDS011;2277;51.626;7.516;2023-07-20T03:52:31;8.17;;;5.57;;
4529;SDS011;2277;51.626;7.516;2023-07-20T03:54:56;6.90;;;4.67;;
4529;SDS011;2277;51.626;7.516;2023-07-20T03:57:22;5.33;;;4.33;;
4529;SDS011;2277;51.626;7.516;2023-07-20T03:59:47;8.60;;;5.90;;
4529;SDS011;2277;51.626;7.516;2023-07-20T04:02:13;5.70;;;4.20;;
4529;SDS011;2277;51.626;7.516;2023-07-20T04:04:39;6.57;;;4.73;;
4529;SDS011;2277;51.626;7.516;2023-07-20T04:07:05;9.70;;;5.40;;
4529;SDS011;2277;51.626;7.516;2023-07-20T04:09:31;5.77;;;5.20;;
4529;SDS011;2277;51.626;7.516;2023-07-20T04:11:57;13.70;;;6.00;;
4529;SDS011;2277;51.626;7.516;2023-07-20T04:14:22;7.47;;;5.83;;
4529;SDS011;2277;51.626;7.516;2023-07-20T04:16:48;8.93;;;6.23;;
4529;SDS011;2277;51.626;7.516;2023-07-20T04:19:13;6.47;;;4.87;;
4529;SDS011;2277;51.626;7.516;2023-07-20T04:21:40;6.33;;;5.00;;
4529;SDS011;2277;51.626;7.516;2023-07-20T04:24:06;9.37;;;6.83;;
4529;SDS011;2277;51.626;7.516;2023-07-20T04:26:32;7.50;;;5.90;;
4529;SDS011;2277;51.626;7.516;2023-07-20T04:28:57;10.80;;;6.80;;
4529;SDS011;2277;51.626;7.516;2023-07-20T04:31:24;7.30;;;4.93;;
4529;SDS011;2277;51.626;7.516;2023-07-20T04:33:50;6.83;;;5.60;;
4529;SDS011;2277;51.626;7.516;2023-07-20T04:36:15;6.47;;;5.73;;
4529;SDS011;2277;51.626;7.516;2023-07-20T04:38:44;7.17;;;4.90;;
4529;SDS011;2277;51.626;7.516;2023-07-20T04:41:10;7.43;;;6.20;;
4529;SDS011;2277;51.626;7.516;2023-07-20T04:43:38;7.70;;;4.90;;
4529;SDS011;2277;51.626;7.516;2023-07-20T04:46:06;6.27;;;5.57;;
4529;SDS011;2277;51.626;7.516;2023-07-20T04:48:32;7.10;;;5.47;;
4529;SDS011;2277;51.626;7.516;2023-07-20T04:50:57;6.43;;;4.60;;
4529;SDS011;2277;51.626;7.516;2023-07-20T04:53:23;5.83;;;4.30;;
4529;SDS011;2277;51.626;7.516;2023-07-20T04:55:49;5.30;;;4.37;;
4529;SDS011;2277;51.626;7.516;2023-07-20T04:58:19;5.57;;;4.90;;
4529;SDS011;2277;51.626;7.516;2023-07-20T05:00:46;5.60;;;5.10;;
4529;SDS011;2277;51.626;7.516;2023-07-20T05:03:11;6.67;;;5.23;;
4529;SDS011;2277;51.626;7.516;2023-07-20T05:05:37;8.13;;;5.43;;
4529;SDS011;2277;51.626;7.516;2023-07-20T05:08:03;5.53;;;3.30;;
4529;SDS011;2277;51.626;7.516;2023-07-20T05:10:29;4.60;;;3.37;;
4529;SDS011;2277;51.626;7.516;2023-07-20T05:12:55;6.00;;;4.00;;
4529;SDS011;2277;51.626;7.516;2023-07-20T05:15:20;4.90;;;4.00;;
4529;SDS011;2277;51.626;7.516;2023-07-20T05:17:46;4.57;;;4.07;;
4529;SDS011;2277;51.626;7.516;2023-07-20T05:20:13;3.97;;;3.47;;
4529;SDS011;2277;51.626;7.516;2023-07-20T05:22:39;4.10;;;3.70;;
4529;SDS011;2277;51.626;7.516;2023-07-20T05:25:06;5.63;;;3.40;;
4529;SDS011;2277;51.626;7.516;2023-07-20T05:27:33;5.50;;;4.57;;
4529;SDS011;2277;51.626;7.516;2023-07-20T05:29:59;5.47;;;3.70;;
4529;SDS011;2277;51.626;7.516;2023-07-20T05:32:25;4.50;;;3.70;;
4529;SDS011;2277;51.626;7.516;2023-07-20T05:34:51;5.60;;;3.97;;
4529;SDS011;2277;51.626;7.516;2023-07-20T05:37:20;3.17;;;2.83;;
4529;SDS011;2277;51.626;7.516;2023-07-20T05:39:46;4.83;;;3.87;;
4529;SDS011;2277;51.626;7.516;2023-07-20T05:42:11;5.20;;;3.70;;
4529;SDS011;2277;51.626;7.516;2023-07-20T05:44:37;4.13;;;3.70;;
4529;SDS011;2277;51.626;7.516;2023-07-20T05:47:03;5.27;;;3.80;;
4529;SDS011;2277;51.626;7.516;2023-07-20T05:49:29;4.23;;;2.60;;
4529;SDS011;2277;51.626;7.516;2023-07-20T05:51:55;5.10;;;3.77;;
4529;SDS011;2277;51.626;7.516;2023-07-20T05:54:21;5.73;;;4.47;;
4529;SDS011;2277;51.626;7.516;2023-07-20T05:56:46;5.20;;;3.33;;
4529;SDS011;2277;51.626;7.516;2023-07-20T05:59:12;3.60;;;3.30;;
4529;SDS011;2277;51.626;7.516;2023-07-20T06:01:38;4.83;;;3.77;;
4529;SDS011;2277;51.626;7.516;2023-07-20T06:04:03;4.47;;;2.83;;
4529;SDS011;2277;51.626;7.516;2023-07-20T06:06:29;7.87;;;3.70;;
4529;SDS011;2277;51.626;7.516;2023-07-20T06:08:55;5.60;;;3.57;;
4529;SDS011;2277;51.626;7.516;2023-07-20T06:11:20;4.47;;;2.73;;
4529;SDS011;2277;51.626;7.516;2023-07-20T06:13:46;4.47;;;2.93;;
4529;SDS011;2277;51.626;7.516;2023-07-20T06:16:11;3.33;;;2.97;;
4529;SDS011;2277;51.626;7.516;2023-07-20T06:18:37;6.33;;;3.47;;
4529;SDS011;2277;51.626;7.516;2023-07-20T06:21:03;3.50;;;2.83;;
4529;SDS011;2277;51.626;7.516;2023-07-20T06:23:29;4.00;;;3.03;;
4529;SDS011;2277;51.626;7.516;2023-07-20T06:25:54;4.83;;;3.50;;
4529;SDS011;2277;51.626;7.516;2023-07-20T06:28:20;3.10;;;2.47;;
4529;SDS011;2277;51.626;7.516;2023-07-20T06:30:45;3.23;;;2.93;;
4529;SDS011;2277;51.626;7.516;2023-07-20T06:33:11;4.43;;;4.03;;
4529;SDS011;2277;51.626;7.516;2023-07-20T06:35:37;4.63;;;3.83;;
4529;SDS011;2277;51.626;7.516;2023-07-20T06:38:02;5.30;;;3.50;;
4529;SDS011;2277;51.626;7.516;2023-07-20T06:40:29;4.20;;;3.73;;
4529;SDS011;2277;51.626;7.516;2023-07-20T06:42:55;2.13;;;2.00;;
4529;SDS011;2277;51.626;7.516;2023-07-20T06:45:20;4.63;;;2.70;;
4529;SDS011;2277;51.626;7.516;2023-07-20T06:47:46;2.97;;;2.10;;
4529;SDS011;2277;51.626;7.516;2023-07-20T06:50:12;4.10;;;2.70;;
4529;SDS011;2277;51.626;7.516;2023-07-20T06:52:37;3.10;;;2.57;;
4529;SDS011;2277;51.626;7.516;2023-07-20T06:55:04;2.90;;;2.30;;
4529;SDS011;2277;51.626;7.516;2023-07-20T06:57:31;2.97;;;2.10;;
4529;SDS011;2277;51.626;7.516;2023-07-20T06:59:57;3.63;;;2.50;;
4529;SDS011;2277;51.626;7.516;2023-07-20T07:02:23;3.20;;;2.20;;
4529;SDS011;2277;51.626;7.516;2023-07-20T07:04:48;2.03;;;1.83;;
4529;SDS011;2277;51.626;7.516;2023-07-20T07:07:14;1.90;;;1.40;;
4529;SDS011;2277;51.626;7.516;2023-07-20T07:09:40;1.60;;;1.23;;
4529;SDS011;2277;51.626;7.516;2023-07-20T07:12:06;2.60;;;1.80;;
4529;SDS011;2277;51.626;7.516;2023-07-20T07:14:32;2.37;;;1.80;;
4529;SDS011;2277;51.626;7.516;2023-07-20T07:16:58;2.50;;;1.63;;
4529;SDS011;2277;51.626;7.516;2023-07-20T07:19:23;2.03;;;1.83;;
4529;SDS011;2277;51.626;7.516;2023-07-20T07:21:49;1.87;;;1.40;;
4529;SDS011;2277;51.626;7.516;2023-07-20T07:24:15;1.23;;;1.10;;
4529;SDS011;2277;51.626;7.516;2023-07-20T07:26:40;1.20;;;1.00;;
4529;SDS011;2277;51.626;7.516;2023-07-20T07:29:06;2.57;;;1.00;;
4529;SDS011;2277;51.626;7.516;2023-07-20T07:31:33;1.60;;;1.37;;
4529;SDS011;2277;51.626;7.516;2023-07-20T07:34:00;1.43;;;1.33;;
4529;SDS011;2277;51.626;7.516;2023-07-20T07:36:25;1.80;;;1.27;;
4529;SDS011;2277;51.626;7.516;2023-07-20T07:38:51;1.60;;;1.30;;
4529;SDS011;2277;51.626;7.516;2023-07-20T07:41:16;1.43;;;1.10;;
4529;SDS011;2277;51.626;7.516;2023-07-20T07:43:42;1.90;;;1.70;;
4529;SDS011;2277;51.626;7.516;2023-07-20T07:46:08;1.97;;;1.87;;
4529;SDS011;2277;51.626;7.516;2023-07-20T07:48:33;2.60;;;2.10;;
4529;SDS011;2277;51.626;7.516;2023-07-20T07:50:59;2.13;;;1.57;;
4529;SDS011;2277;51.626;7.516;2023-07-20T07:53:25;3.40;;;1.70;;
4529;SDS011;2277;51.626;7.516;2023-07-20T07:55:51;2.50;;;1.60;;
4529;SDS011;2277;51.626;7.516;2023-07-20T07:58:17;2.10;;;1.73;;
4529;SDS011;2277;51.626;7.516;2023-07-20T08:00:42;3.40;;;1.97;;
4529;SDS011;2277;51.626;7.516;2023-07-20T08:03:09;2.23;;;1.67;;
4529;SDS011;2277;51.626;7.516;2023-07-20T08:05:35;1.83;;;1.70;;
4529;SDS011;2277;51.626;7.516;2023-07-20T08:08:01;1.70;;;1.10;;
4529;SDS011;2277;51.626;7.516;2023-07-20T08:10:28;1.70;;;1.30;;
4529;SDS011;2277;51.626;7.516;2023-07-20T08:12:54;2.47;;;1.20;;
4529;SDS011;2277;51.626;7.516;2023-07-20T08:15:20;1.40;;;1.20;;
4529;SDS011;2277;51.626;7.516;2023-07-20T08:17:46;3.17;;;1.33;;
4529;SDS011;2277;51.626;7.516;2023-07-20T08:20:13;3.03;;;1.40;;
4529;SDS011;2277;51.626;7.516;2023-07-20T08:22:41;1.40;;;1.10;;
4529;SDS011;2277;51.626;7.516;2023-07-20T08:25:07;1.83;;;1.27;;
4529;SDS011;2277;51.626;7.516;2023-07-20T08:27:33;1.77;;;1.20;;
4529;SDS011;2277;51.626;7.516;2023-07-20T08:29:59;1.80;;;1.10;;
4529;SDS011;2277;51.626;7.516;2023-07-20T08:32:25;1.77;;;1.20;;
4529;SDS011;2277;51.626;7.516;2023-07-20T08:34:51;1.60;;;1.13;;
4529;SDS011;2277;51.626;7.516;2023-07-20T08:37:16;1.30;;;0.90;;
4529;SDS011;2277;51.626;7.516;2023-07-20T08:39:42;1.17;;;0.80;;
4529;SDS011;2277;51.626;7.516;2023-07-20T08:42:08;2.07;;;0.90;;
4529;SDS011;2277;51.626;7.516;2023-07-20T08:44:36;3.53;;;0.87;;
4529;SDS011;2277;51.626;7.516;2023-07-20T08:47:04;1.40;;;0.90;;
4529;SDS011;2277;51.626;7.516;2023-07-20T08:49:32;1.30;;;0.97;;
4529;SDS011;2277;51.626;7.516;2023-07-20T08:51:58;1.57;;;1.23;;
4529;SDS011;2277;51.626;7.516;2023-07-20T08:54:26;1.70;;;1.10;;
4529;SDS011;2277;51.626;7.516;2023-07-20T08:56:57;1.30;;;0.80;;
4529;SDS011;2277;51.626;7.516;2023-07-20T08:59:26;1.27;;;1.03;;
4529;SDS011;2277;51.626;7.516;2023-07-20T09:01:53;1.13;;;0.70;;
4529;SDS011;2277;51.626;7.516;2023-07-20T09:04:21;1.40;;;0.90;;
4529;SDS011;2277;51.626;7.516;2023-07-20T09:06:48;1.40;;;1.10;;
4529;SDS011;2277;51.626;7.516;2023-07-20T09:09:14;1.57;;;0.87;;
4529;SDS011;2277;51.626;7.516;2023-07-20T09:11:40;1.70;;;0.93;;
4529;SDS011;2277;51.626;7.516;2023-07-20T09:14:06;1.67;;;0.90;;
4529;SDS011;2277;51.626;7.516;2023-07-20T09:16:46;1.10;;;0.80;;
4529;SDS011;2277;51.626;7.516;2023-07-20T09:19:16;1.00;;;0.60;;
4529;SDS011;2277;51.626;7.516;2023-07-20T09:21:46;1.17;;;0.73;;
4529;SDS011;2277;51.626;7.516;2023-07-20T09:24:13;1.50;;;1.20;;
4529;SDS011;2277;51.626;7.516;2023-07-20T09:26:42;1.27;;;1.00;;
4529;SDS011;2277;51.626;7.516;2023-07-20T09:29:09;1.20;;;0.90;;
4529;SDS011;2277;51.626;7.516;2023-07-20T09:31:36;1.67;;;0.90;;
4529;SDS011;2277;51.626;7.516;2023-07-20T09:34:02;1.57;;;0.97;;
4529;SDS011;2277;51.626;7.516;2023-07-20T09:36:29;1.27;;;0.90;;
4529;SDS011;2277;51.626;7.516;2023-07-20T09:38:58;1.00;;;0.70;;
4529;SDS011;2277;51.626;7.516;2023-07-20T09:41:24;1.10;;;0.90;;
4529;SDS011;2277;51.626;7.516;2023-07-20T09:43:50;1.40;;;0.80;;
4529;SDS011;2277;51.626;7.516;2023-07-20T09:46:16;1.20;;;0.70;;
4529;SDS011;2277;51.626;7.516;2023-07-20T09:48:48;1.00;;;0.70;;
4529;SDS011;2277;51.626;7.516;2023-07-20T09:51:22;1.20;;;0.70;;
4529;SDS011;2277;51.626;7.516;2023-07-20T09:53:52;1.00;;;0.70;;
4529;SDS011;2277;51.626;7.516;2023-07-20T09:56:20;1.27;;;1.17;;
4529;SDS011;2277;51.626;7.516;2023-07-20T09:58:48;1.07;;;0.70;;
4529;SDS011;2277;51.626;7.516;2023-07-20T10:01:13;1.00;;;0.70;;
4529;SDS011;2277;51.626;7.516;2023-07-20T10:03:43;1.00;;;0.70;;
4529;SDS011;2277;51.626;7.516;2023-07-20T10:06:10;0.93;;;0.67;;
4529;SDS011;2277;51.626;7.516;2023-07-20T10:08:40;1.30;;;0.70;;
4529;SDS011;2277;51.626;7.516;2023-07-20T10:11:07;2.27;;;0.70;;
4529;SDS011;2277;51.626;7.516;2023-07-20T10:13:37;2.70;;;0.90;;
4529;SDS011;2277;51.626;7.516;2023-07-20T10:16:05;1.20;;;0.70;;
4529;SDS011;2277;51.626;7.516;2023-07-20T10:18:41;1.00;;;0.70;;
4529;SDS011;2277;51.626;7.516;2023-07-20T10:21:17;1.07;;;0.80;;
4529;SDS011;2277;51.626;7.516;2023-07-20T10:23:44;1.10;;;0.67;;
4529;SDS011;2277;51.626;7.516;2023-07-20T10:26:10;0.90;;;0.70;;
4529;SDS011;2277;51.626;7.516;2023-07-20T10:28:36;0.90;;;0.63;;
4529;SDS011;2277;51.626;7.516;2023-07-20T10:31:03;1.00;;;0.83;;
4529;SDS011;2277;51.626;7.516;2023-07-20T10:33:29;1.30;;;0.87;;
4529;SDS011;2277;51.626;7.516;2023-07-20T10:36:01;2.10;;;0.90;;
4529;SDS011;2277;51.626;7.516;2023-07-20T10:41:19;1.00;;;0.70;;
4529;SDS011;2277;51.626;7.516;2023-07-20T10:43:47;1.30;;;0.60;;
4529;SDS011;2277;51.626;7.516;2023-07-20T10:46:13;0.90;;;0.60;;
4529;SDS011;2277;51.626;7.516;2023-07-20T10:49:01;1.43;;;1.03;;
4529;SDS011;2277;51.626;7.516;2023-07-20T10:51:27;0.80;;;0.50;;
4529;SDS011;2277;51.626;7.516;2023-07-20T10:53:54;1.47;;;0.80;;
4529;SDS011;2277;51.626;7.516;2023-07-20T10:56:27;1.20;;;0.73;;
4529;SDS011;2277;51.626;7.516;2023-07-20T10:58:57;1.20;;;0.70;;
4529;SDS011;2277;51.626;7.516;2023-07-20T11:01:27;1.10;;;0.90;;
4529;SDS011;2277;51.626;7.516;2023-07-20T11:03:57;0.90;;;0.70;;
4529;SDS011;2277;51.626;7.516;2023-07-20T11:09:02;3.63;;;1.10;;
4529;SDS011;2277;51.626;7.516;2023-07-20T11:11:32;0.90;;;0.70;;
4529;SDS011;2277;51.626;7.516;2023-07-20T11:14:00;1.17;;;0.80;;
4529;SDS011;2277;51.626;7.516;2023-07-20T11:19:02;1.10;;;0.80;;
4529;SDS011;2277;51.626;7.516;2023-07-20T11:21:30;1.20;;;0.77;;
4529;SDS011;2277;51.626;7.516;2023-07-20T11:24:05;1.50;;;1.10;;
4529;SDS011;2277;51.626;7.516;2023-07-20T11:26:39;1.00;;;0.80;;
4529;SDS011;2277;51.626;7.516;2023-07-20T11:29:08;1.60;;;0.90;;
4529;SDS011;2277;51.626;7.516;2023-07-20T11:31:40;1.10;;;0.90;;
4529;SDS011;2277;51.626;7.516;2023-07-20T11:34:09;1.20;;;1.07;;
4529;SDS011;2277;51.626;7.516;2023-07-20T11:36:37;1.00;;;0.80;;
4529;SDS011;2277;51.626;7.516;2023-07-20T11:39:10;1.30;;;0.70;;
4529;SDS011;2277;51.626;7.516;2023-07-20T11:41:36;1.57;;;0.80;;
4529;SDS011;2277;51.626;7.516;2023-07-20T11:44:03;1.00;;;0.90;;
4529;SDS011;2277;51.626;7.516;2023-07-20T11:46:31;2.47;;;0.90;;
4529;SDS011;2277;51.626;7.516;2023-07-20T11:48:57;1.30;;;1.00;;
4529;SDS011;2277;51.626;7.516;2023-07-20T11:51:31;1.13;;;0.90;;
4529;SDS011;2277;51.626;7.516;2023-07-20T11:53:57;1.20;;;0.80;;
4529;SDS011;2277;51.626;7.516;2023-07-20T11:56:24;1.30;;;0.90;;
4529;SDS011;2277;51.626;7.516;2023-07-20T11:58:50;1.27;;;0.90;;
4529;SDS011;2277;51.626;7.516;2023-07-20T12:01:19;5.13;;;0.97;;
4529;SDS011;2277;51.626;7.516;2023-07-20T12:03:45;1.47;;;0.80;;
4529;SDS011;2277;51.626;7.516;2023-07-20T12:06:13;1.20;;;0.83;;
4529;SDS011;2277;51.626;7.516;2023-07-20T12:08:41;1.43;;;1.07;;
4529;SDS011;2277;51.626;7.516;2023-07-20T12:11:08;1.10;;;0.80;;
4529;SDS011;2277;51.626;7.516;2023-07-20T12:16:09;1.00;;;0.70;;
4529;SDS011;2277;51.626;7.516;2023-07-20T12:18:44;1.10;;;0.70;;
4529;SDS011;2277;51.626;7.516;2023-07-20T12:21:10;1.20;;;0.80;;
4529;SDS011;2277;51.626;7.516;2023-07-20T12:23:39;1.50;;;0.93;;
4529;SDS011;2277;51.626;7.516;2023-07-20T12:26:09;1.20;;;1.00;;
4529;SDS011;2277;51.626;7.516;2023-07-20T12:28:44;1.63;;;0.77;;
4529;SDS011;2277;51.626;7.516;2023-07-20T12:31:10;1.30;;;0.70;;
4529;SDS011;2277;51.626;7.516;2023-07-20T12:33:36;1.00;;;0.80;;
4529;SDS011;2277;51.626;7.516;2023-07-20T12:36:03;1.60;;;0.80;;
4529;SDS011;2277;51.626;7.516;2023-07-20T12:38:29;0.90;;;0.70;;
4529;SDS011;2277;51.626;7.516;2023-07-20T12:40:59;1.20;;;0.73;;
4529;SDS011;2277;51.626;7.516;2023-07-20T12:43:26;1.20;;;0.90;;
4529;SDS011;2277;51.626;7.516;2023-07-20T12:45:51;1.00;;;0.80;;
4529;SDS011;2277;51.626;7.516;2023-07-20T12:48:17;1.00;;;0.90;;
4529;SDS011;2277;51.626;7.516;2023-07-20T12:50:43;1.27;;;0.80;;
4529;SDS011;2277;51.626;7.516;2023-07-20T12:53:08;1.10;;;0.70;;
4529;SDS011;2277;51.626;7.516;2023-07-20T12:55:34;1.30;;;0.80;;
4529;SDS011;2277;51.626;7.516;2023-07-20T12:58:00;1.30;;;0.80;;
4529;SDS011;2277;51.626;7.516;2023-07-20T13:00:25;1.33;;;0.83;;
4529;SDS011;2277;51.626;7.516;2023-07-20T13:02:51;1.00;;;0.70;;
4529;SDS011;2277;51.626;7.516;2023-07-20T13:05:17;1.63;;;0.70;;
4529;SDS011;2277;51.626;7.516;2023-07-20T13:07:43;1.33;;;0.90;;
4529;SDS011;2277;51.626;7.516;2023-07-20T13:10:09;1.47;;;0.77;;
4529;SDS011;2277;51.626;7.516;2023-07-20T13:12:35;1.10;;;0.80;;
4529;SDS011;2277;51.626;7.516;2023-07-20T13:15:03;1.73;;;0.80;;
4529;SDS011;2277;51.626;7.516;2023-07-20T13:17:31;2.00;;;1.07;;
4529;SDS011;2277;51.626;7.516;2023-07-20T13:19:57;1.67;;;0.70;;
4529;SDS011;2277;51.626;7.516;2023-07-20T13:22:23;0.90;;;0.70;;
4529;SDS011;2277;51.626;7.516;2023-07-20T13:24:48;1.50;;;0.97;;
4529;SDS011;2277;51.626;7.516;2023-07-20T13:27:15;1.00;;;0.83;;
4529;SDS011;2277;51.626;7.516;2023-07-20T13:29:44;1.00;;;0.70;;
4529;SDS011;2277;51.626;7.516;2023-07-20T13:32:12;0.97;;;0.70;;
4529;SDS011;2277;51.626;7.516;2023-07-20T13:34:39;1.40;;;0.90;;
4529;SDS011;2277;51.626;7.516;2023-07-20T13:37:05;1.10;;;0.80;;
4529;SDS011;2277;51.626;7.516;2023-07-20T13:39:31;1.00;;;0.70;;
4529;SDS011;2277;51.626;7.516;2023-07-20T13:41:57;1.20;;;0.73;;
4529;SDS011;2277;51.626;7.516;2023-07-20T13:44:22;1.03;;;0.70;;
4529;SDS011;2277;51.626;7.516;2023-07-20T13:46:49;1.40;;;0.80;;
4529;SDS011;2277;51.626;7.516;2023-07-20T13:49:15;1.67;;;0.90;;
4529;SDS011;2277;51.626;7.516;2023-07-20T13:51:41;1.00;;;0.70;;
4529;SDS011;2277;51.626;7.516;2023-07-20T13:54:07;1.87;;;0.80;;
4529;SDS011;2277;51.626;7.516;2023-07-20T13:56:33;1.20;;;0.83;;
4529;SDS011;2277;51.626;7.516;2023-07-20T13:58:59;1.00;;;0.70;;
4529;SDS011;2277;51.626;7.516;2023-07-20T14:01:25;1.00;;;0.67;;
4529;SDS011;2277;51.626;7.516;2023-07-20T14:03:53;1.10;;;0.90;;
4529;SDS011;2277;51.626;7.516;2023-07-20T14:06:19;0.83;;;0.53;;
4529;SDS011;2277;51.626;7.516;2023-07-20T14:08:45;1.20;;;1.10;;
4529;SDS011;2277;51.626;7.516;2023-07-20T14:11:12;1.10;;;0.77;;
4529;SDS011;2277;51.626;7.516;2023-07-20T14:13:38;2.03;;;1.80;;
4529;SDS011;2277;51.626;7.516;2023-07-20T14:16:04;1.40;;;0.97;;
4529;SDS011;2277;51.626;7.516;2023-07-20T14:18:29;1.10;;;0.90;;
4529;SDS011;2277;51.626;7.516;2023-07-20T14:20:55;0.93;;;0.57;;
4529;SDS011;2277;51.626;7.516;2023-07-20T14:23:21;1.10;;;0.80;;
4529;SDS011;2277;51.626;7.516;2023-07-20T14:25:46;1.00;;;0.83;;
4529;SDS011;2277;51.626;7.516;2023-07-20T14:28:12;0.90;;;0.63;;
4529;SDS011;2277;51.626;7.516;2023-07-20T14:30:38;1.30;;;0.70;;
4529;SDS011;2277;51.626;7.516;2023-07-20T14:33:04;1.00;;;0.60;;
4529;SDS011;2277;51.626;7.516;2023-07-20T14:35:29;2.03;;;0.80;;
4529;SDS011;2277;51.626;7.516;2023-07-20T14:37:55;1.20;;;0.70;;
4529;SDS011;2277;51.626;7.516;2023-07-20T14:40:21;1.10;;;0.60;;
4529;SDS011;2277;51.626;7.516;2023-07-20T14:42:47;1.07;;;0.80;;
4529;SDS011;2277;51.626;7.516;2023-07-20T14:45:12;0.87;;;0.67;;
4529;SDS011;2277;51.626;7.516;2023-07-20T14:47:38;0.90;;;0.60;;
4529;SDS011;2277;51.626;7.516;2023-07-20T14:50:05;1.47;;;0.77;;
4529;SDS011;2277;51.626;7.516;2023-07-20T14:52:31;1.40;;;0.90;;
4529;SDS011;2277;51.626;7.516;2023-07-20T14:54:56;1.00;;;0.70;;
4529;SDS011;2277;51.626;7.516;2023-07-20T14:57:22;1.00;;;0.73;;
4529;SDS011;2277;51.626;7.516;2023-07-20T14:59:51;1.13;;;0.73;;
4529;SDS011;2277;51.626;7.516;2023-07-20T15:02:18;1.00;;;0.67;;
4529;SDS011;2277;51.626;7.516;2023-07-20T15:04:50;3.90;;;1.00;;
4529;SDS011;2277;51.626;7.516;2023-07-20T15:07:17;1.00;;;0.73;;
4529;SDS011;2277;51.626;7.516;2023-07-20T15:09:44;3.07;;;0.83;;
4529;SDS011;2277;51.626;7.516;2023-07-20T15:12:09;0.90;;;0.70;;
4529;SDS011;2277;51.626;7.516;2023-07-20T15:14:35;1.20;;;0.80;;
4529;SDS011;2277;51.626;7.516;2023-07-20T15:17:04;2.43;;;1.00;;
4529;SDS011;2277;51.626;7.516;2023-07-20T15:19:30;1.43;;;1.07;;
4529;SDS011;2277;51.626;7.516;2023-07-20T15:21:56;1.63;;;0.93;;
4529;SDS011;2277;51.626;7.516;2023-07-20T15:24:22;1.37;;;1.00;;
4529;SDS011;2277;51.626;7.516;2023-07-20T15:26:47;1.60;;;0.83;;
4529;SDS011;2277;51.626;7.516;2023-07-20T15:29:13;1.30;;;0.90;;
4529;SDS011;2277;51.626;7.516;2023-07-20T15:31:38;0.90;;;0.70;;
4529;SDS011;2277;51.626;7.516;2023-07-20T15:34:04;1.97;;;1.37;;
4529;SDS011;2277;51.626;7.516;2023-07-20T15:36:30;1.40;;;0.70;;